New Breman, New York
Current Conditions -  °F | °C
As of 5:48 AM on Saturday 22 Nov 2014 (Local Time) from KGTB Reporting Station
Overcast Overcast  
Wind Chill: 11°   Ceiling: 13000
Heat Index: 25°   Visibility: 10mi
Dew Point: 16°   Wind: 17mph
Humidity: 69%   Direction: 210°SSW
Pressure: 30.25"   Gusts: NA
Location:  43.7565°N, 75.5938°W
Report Text: KGTB 221048Z AUTO 21015KT 10SM SCT024 OVC130 M04/M09 A3025 RMK AO2
Loading
Personal Weather Stations






























Interactive Weather Map New forecast layout! Learn more

10-Day Weather Forecast

Advertisements
Track Severe Weather on mobile